Time;durP1;ratioP1;P1;durP2;ratioP2;P2;SDS_P1;SDS_P2;PMS_P1;PMS_P2;Temp;Humidity;BMP_temperature;BMP_pressure;BME280_temperature;BME280_humidity;BME280_pressure;Samples;Min_cycle;Max_cycle;Signal;HPM_P1;HPM_P2
2022/09/20 00:00:23;;;;;;;;;0.00;0.00;;;;;;;;5098072;27;45831;-75
2022/09/20 00:02:48;;;;;;;;;1.00;0.67;;;;;;;;5097385;27;45311;-74
2022/09/20 00:05:13;;;;;;;;;0.00;0.00;;;;;;;;5098024;27;45370;-75
2022/09/20 00:07:39;;;;;;;;;1.33;1.00;;;;;;;;5097972;27;45464;-74
2022/09/20 00:10:04;;;;;;;;;0.33;0.00;;;;;;;;5098013;27;45348;-75
2022/09/20 00:12:30;;;;;;;;;0.67;0.00;;;;;;;;5097697;27;47234;-75
2022/09/20 00:14:55;;;;;;;;;2.00;0.00;;;;;;;;5097816;27;45438;-75
2022/09/20 00:17:20;;;;;;;;;0.33;0.33;;;;;;;;5097641;27;45236;-76
2022/09/20 00:19:45;;;;;;;;;0.00;0.00;;;;;;;;5097717;27;45563;-76
2022/09/20 00:22:11;;;;;;;;;1.00;0.00;;;;;;;;5097834;27;45369;-75
2022/09/20 00:24:36;;;;;;;;;0.00;0.00;;;;;;;;5097534;27;45343;-75
2022/09/20 00:27:02;;;;;;;;;0.67;0.67;;;;;;;;5097540;27;45341;-75
2022/09/20 00:29:27;;;;;;;;;1.00;1.00;;;;;;;;5097667;27;45387;-75
2022/09/20 00:31:52;;;;;;;;;1.00;1.00;;;;;;;;5097068;27;45445;-75
2022/09/20 00:37:01;;;;;;;;;0.00;0.00;;;;;;;;5097494;27;45464;-75
2022/09/20 00:39:26;;;;;;;;;1.00;1.00;;;;;;;;5097352;27;45481;-75
2022/09/20 00:41:51;;;;;;;;;0.00;0.00;;;;;;;;5097124;27;45209;-75
2022/09/20 00:44:35;;;;;;;;;0.67;0.67;;;;;;;;5097544;27;45241;-75
2022/09/20 00:47:01;;;;;;;;;0.00;0.00;;;;;;;;5097132;27;45306;-75
2022/09/20 00:49:27;;;;;;;;;0.67;0.00;;;;;;;;5097495;27;45352;-75
2022/09/20 00:51:58;;;;;;;;;0.00;0.00;;;;;;;;5096920;27;47037;-75
2022/09/20 00:54:24;;;;;;;;;0.00;0.00;;;;;;;;5096977;27;45448;-75
2022/09/20 00:56:50;;;;;;;;;0.67;0.67;;;;;;;;5096778;27;45389;-74
2022/09/20 00:59:20;;;;;;;;;1.00;1.00;;;;;;;;5097118;27;45339;-76
2022/09/20 01:01:48;;;;;;;;;0.00;0.00;;;;;;;;5096386;27;45579;-75
2022/09/20 01:04:15;;;;;;;;;2.00;0.33;;;;;;;;5096572;27;45386;-75
2022/09/20 01:06:42;;;;;;;;;0.67;0.67;;;;;;;;5096928;27;45476;-75
2022/09/20 01:09:07;;;;;;;;;0.67;0.67;;;;;;;;5096892;27;45343;-75
2022/09/20 01:11:34;;;;;;;;;0.00;0.00;;;;;;;;5096972;27;46313;-75
2022/09/20 01:13:59;;;;;;;;;0.33;0.33;;;;;;;;5096825;27;45417;-74
2022/09/20 01:16:25;;;;;;;;;0.00;0.00;;;;;;;;5096480;27;45379;-75
2022/09/20 01:18:51;;;;;;;;;0.33;0.33;;;;;;;;5096510;27;45296;-74
2022/09/20 01:21:16;;;;;;;;;0.00;0.00;;;;;;;;5096554;27;46356;-75
2022/09/20 01:23:50;;;;;;;;;2.00;0.00;;;;;;;;5096799;27;45343;-75
2022/09/20 01:26:27;;;;;;;;;1.00;1.00;;;;;;;;5096755;27;45398;-76
2022/09/20 01:28:59;;;;;;;;;1.00;1.00;;;;;;;;5096574;27;45442;-75
2022/09/20 01:31:30;;;;;;;;;0.00;0.00;;;;;;;;5095481;27;45480;-75
2022/09/20 01:33:56;;;;;;;;;1.00;1.00;;;;;;;;5078043;27;45363;-75
2022/09/20 01:36:28;;;;;;;;;0.67;0.33;;;;;;;;5096766;27;45298;-75
2022/09/20 01:39:05;;;;;;;;;0.00;0.00;;;;;;;;5096512;27;45251;-75
2022/09/20 01:41:47;;;;;;;;;0.00;0.00;;;;;;;;5096547;27;45862;-75
2022/09/20 01:44:12;;;;;;;;;0.00;0.00;;;;;;;;5096004;27;45447;-75
2022/09/20 01:46:41;;;;;;;;;1.00;0.00;;;;;;;;5096160;27;45445;-75
2022/09/20 01:49:24;;;;;;;;;0.00;0.00;;;;;;;;5096273;27;45325;-75
2022/09/20 01:52:16;;;;;;;;;0.67;0.67;;;;;;;;5096041;27;45402;-75
2022/09/20 01:55:01;;;;;;;;;0.33;0.00;;;;;;;;5065598;27;46200;-74
2022/09/20 01:57:27;;;;;;;;;1.33;0.00;;;;;;;;5013140;28;45367;-74
2022/09/20 02:00:01;;;;;;;;;0.00;0.00;;;;;;;;5013256;28;45493;-75
2022/09/20 02:02:35;;;;;;;;;1.00;0.00;;;;;;;;5012833;28;47283;-75
2022/09/20 02:05:07;;;;;;;;;1.00;1.00;;;;;;;;5012766;28;45402;-75
2022/09/20 02:07:45;;;;;;;;;1.00;1.00;;;;;;;;4996455;28;45529;-74
2022/09/20 02:10:13;;;;;;;;;0.00;0.00;;;;;;;;5015319;28;45267;-75
2022/09/20 02:12:56;;;;;;;;;0.00;0.00;;;;;;;;5016521;28;46905;-75
2022/09/20 02:15:22;;;;;;;;;0.33;0.33;;;;;;;;5016074;28;45368;-75
2022/09/20 02:17:52;;;;;;;;;1.00;1.00;;;;;;;;5016586;28;45434;-75
2022/09/20 02:20:22;;;;;;;;;0.00;0.00;;;;;;;;5016780;28;45366;-75
2022/09/20 02:22:58;;;;;;;;;0.00;0.00;;;;;;;;5016427;28;46220;-75
2022/09/20 02:25:41;;;;;;;;;0.33;0.33;;;;;;;;5016478;28;45416;-75
2022/09/20 02:28:10;;;;;;;;;0.00;0.00;;;;;;;;5015803;28;45282;-75
2022/09/20 02:30:41;;;;;;;;;0.00;0.00;;;;;;;;5016377;28;45294;-74
2022/09/20 02:33:21;;;;;;;;;0.00;0.00;;;;;;;;5016264;28;45498;-75
2022/09/20 02:35:55;;;;;;;;;1.00;1.00;;;;;;;;5098545;27;45288;-74
2022/09/20 02:38:56;;;;;;;;;1.00;1.00;;;;;;;;5099503;27;45456;-74
2022/09/20 02:41:39;;;;;;;;;1.00;1.00;;;;;;;;5025572;28;45614;-75
2022/09/20 02:44:23;;;;;;;;;0.00;0.00;;;;;;;;5035201;28;46490;-74
2022/09/20 02:46:51;;;;;;;;;0.00;0.00;;;;;;;;5036130;28;45428;-75
2022/09/20 02:49:19;;;;;;;;;0.00;0.00;;;;;;;;5036084;28;45480;-75
2022/09/20 02:51:50;;;;;;;;;1.00;1.00;;;;;;;;5036094;28;45571;-75
2022/09/20 02:54:34;;;;;;;;;0.00;0.00;;;;;;;;5035772;28;47197;-75
2022/09/20 02:57:09;;;;;;;;;1.00;1.00;;;;;;;;5035430;28;45489;-75
2022/09/20 02:59:43;;;;;;;;;0.00;0.00;;;;;;;;5036210;28;45498;-76
2022/09/20 03:02:21;;;;;;;;;1.00;1.00;;;;;;;;5035929;28;45440;-74
2022/09/20 03:05:05;;;;;;;;;0.67;0.67;;;;;;;;5022146;28;46068;-75
2022/09/20 03:07:36;;;;;;;;;0.00;0.00;;;;;;;;5034286;28;45503;-75
2022/09/20 03:10:10;;;;;;;;;2.00;1.00;;;;;;;;5034699;28;45802;-74
2022/09/20 03:12:38;;;;;;;;;0.00;0.00;;;;;;;;5034011;28;45296;-74
2022/09/20 03:15:06;;;;;;;;;0.00;0.00;;;;;;;;5050436;28;46240;-74
2022/09/20 03:17:41;;;;;;;;;0.00;0.00;;;;;;;;5091544;27;45606;-74
2022/09/20 03:20:09;;;;;;;;;0.00;0.00;;;;;;;;5084316;27;45370;-74
2022/09/20 03:22:37;;;;;;;;;0.33;0.33;;;;;;;;5097191;27;45285;-75
2022/09/20 03:25:08;;;;;;;;;0.00;0.00;;;;;;;;5097078;27;47087;-75
2022/09/20 03:27:49;;;;;;;;;0.00;0.00;;;;;;;;5097212;27;45460;-75
2022/09/20 03:30:32;;;;;;;;;1.33;1.00;;;;;;;;5097302;27;45446;-74
2022/09/20 03:33:05;;;;;;;;;0.00;0.00;;;;;;;;5097318;27;45346;-75
2022/09/20 03:35:41;;;;;;;;;0.00;0.00;;;;;;;;5097189;27;46351;-74
2022/09/20 03:38:16;;;;;;;;;1.00;1.00;;;;;;;;5097125;27;45400;-74
2022/09/20 03:40:57;;;;;;;;;0.00;0.00;;;;;;;;5096699;27;45286;-75
2022/09/20 03:43:37;;;;;;;;;0.00;0.00;;;;;;;;5097148;27;45531;-74
2022/09/20 03:46:08;;;;;;;;;0.00;0.00;;;;;;;;5096881;27;45338;-75
2022/09/20 03:48:53;;;;;;;;;0.00;0.00;;;;;;;;5097030;27;45513;-75
2022/09/20 03:51:31;;;;;;;;;0.00;0.00;;;;;;;;5096650;27;45292;-75
2022/09/20 03:54:11;;;;;;;;;0.00;0.00;;;;;;;;5096685;27;45322;-75
2022/09/20 03:56:57;;;;;;;;;1.00;0.00;;;;;;;;5096266;27;46283;-74
2022/09/20 03:59:33;;;;;;;;;1.00;0.67;;;;;;;;5096464;27;45476;-74
2022/09/20 04:02:17;;;;;;;;;0.00;0.00;;;;;;;;5096885;27;45365;-74
2022/09/20 04:04:45;;;;;;;;;2.00;0.00;;;;;;;;5042112;27;1149442;-74
2022/09/20 04:07:49;;;;;;;;;0.67;0.67;;;;;;;;5097616;27;47330;-75
2022/09/20 04:10:24;;;;;;;;;1.00;1.00;;;;;;;;5024620;28;45638;-75
2022/09/20 04:13:05;;;;;;;;;1.00;1.00;;;;;;;;5034539;28;45298;-75
2022/09/20 04:15:36;;;;;;;;;0.00;0.00;;;;;;;;5035018;28;45567;-74
2022/09/20 04:18:19;;;;;;;;;0.00;0.00;;;;;;;;5020275;28;46397;-75
2022/09/20 04:20:52;;;;;;;;;1.00;0.00;;;;;;;;5034375;28;45362;-74
2022/09/20 04:23:41;;;;;;;;;1.00;1.00;;;;;;;;5034580;28;45505;-74
2022/09/20 04:26:07;;;;;;;;;0.00;0.00;;;;;;;;5034378;28;45641;-74
2022/09/20 04:28:36;;;;;;;;;1.00;1.00;;;;;;;;5034403;28;47418;-74
2022/09/20 04:31:05;;;;;;;;;1.00;1.00;;;;;;;;5034504;28;45396;-75
2022/09/20 04:33:34;;;;;;;;;0.00;0.00;;;;;;;;5033284;28;45366;-75
2022/09/20 04:36:30;;;;;;;;;0.00;0.00;;;;;;;;5034251;28;45522;-75
2022/09/20 04:39:10;;;;;;;;;1.33;0.00;;;;;;;;5033598;28;46195;-74
2022/09/20 04:41:49;;;;;;;;;2.00;1.00;;;;;;;;5077573;27;45400;-75
2022/09/20 04:44:49;;;;;;;;;0.00;0.00;;;;;;;;5097155;27;45428;-74
2022/09/20 04:47:33;;;;;;;;;0.00;0.00;;;;;;;;5033923;28;45523;-75
2022/09/20 04:49:58;;;;;;;;;0.00;0.00;;;;;;;;5034011;28;45699;-74
2022/09/20 04:52:42;;;;;;;;;1.67;0.00;;;;;;;;5033956;28;45297;-74
2022/09/20 04:55:11;;;;;;;;;1.00;1.00;;;;;;;;5034244;28;45378;-75
2022/09/20 04:57:54;;;;;;;;;0.33;0.33;;;;;;;;5034016;28;45405;-74
2022/09/20 05:00:20;;;;;;;;;1.00;1.00;;;;;;;;5033838;28;46276;-74
2022/09/20 05:03:01;;;;;;;;;0.00;0.00;;;;;;;;5033517;28;45407;-75
2022/09/20 05:05:44;;;;;;;;;1.00;1.00;;;;;;;;5033982;28;45511;-75
2022/09/20 05:08:09;;;;;;;;;1.00;1.00;;;;;;;;5033623;28;45514;-75
2022/09/20 05:10:53;;;;;;;;;0.00;0.00;;;;;;;;5034014;28;46303;-75
2022/09/20 05:13:37;;;;;;;;;0.00;0.00;;;;;;;;5033814;28;45362;-75
2022/09/20 05:16:11;;;;;;;;;1.00;1.00;;;;;;;;5033454;28;45365;-75
2022/09/20 05:18:37;;;;;;;;;2.00;0.33;;;;;;;;5033604;28;45384;-75
2022/09/20 05:21:02;;;;;;;;;2.00;0.00;;;;;;;;5059378;27;46183;-75
2022/09/20 05:23:27;;;;;;;;;1.00;1.00;;;;;;;;5096523;27;45323;-74
2022/09/20 05:26:02;;;;;;;;;0.00;0.00;;;;;;;;5097047;27;45519;-75
2022/09/20 05:28:27;;;;;;;;;0.00;0.00;;;;;;;;5096617;27;45343;-74
2022/09/20 05:31:04;;;;;;;;;2.00;1.00;;;;;;;;5095872;27;46244;-75
2022/09/20 05:33:29;;;;;;;;;0.33;0.33;;;;;;;;5096446;27;45453;-74
2022/09/20 05:35:57;;;;;;;;;0.00;0.00;;;;;;;;5096393;27;45500;-75
2022/09/20 05:38:22;;;;;;;;;0.00;0.00;;;;;;;;5096229;27;45389;-75
2022/09/20 05:41:03;;;;;;;;;1.00;1.00;;;;;;;;5096401;27;45374;-75
2022/09/20 05:43:28;;;;;;;;;1.00;1.00;;;;;;;;5095718;27;45481;-75
2022/09/20 05:45:53;;;;;;;;;1.00;1.00;;;;;;;;5096474;27;45412;-75
2022/09/20 05:48:37;;;;;;;;;0.00;0.00;;;;;;;;5096997;27;45450;-75
2022/09/20 05:51:05;;;;;;;;;0.00;0.00;;;;;;;;5095800;27;46381;-76
2022/09/20 05:53:49;;;;;;;;;0.33;0.33;;;;;;;;5096337;27;45437;-74
2022/09/20 05:56:27;;;;;;;;;0.33;0.33;;;;;;;;5082921;27;45367;-75
2022/09/20 05:59:04;;;;;;;;;1.00;1.00;;;;;;;;5095668;27;45556;-74
2022/09/20 06:01:37;;;;;;;;;0.67;0.67;;;;;;;;5096093;27;46259;-75
2022/09/20 06:04:18;;;;;;;;;0.00;0.00;;;;;;;;5095768;27;45305;-74
2022/09/20 06:06:49;;;;;;;;;0.00;0.00;;;;;;;;5086877;27;45317;-76
2022/09/20 06:09:33;;;;;;;;;0.67;0.67;;;;;;;;5088444;27;45378;-75
2022/09/20 06:12:17;;;;;;;;;0.00;0.00;;;;;;;;5093947;27;46175;-74
2022/09/20 06:15:02;;;;;;;;;1.00;1.00;;;;;;;;5093778;27;45589;-73
2022/09/20 06:17:28;;;;;;;;;1.00;0.00;;;;;;;;5093524;27;45377;-79
2022/09/20 06:20:05;;;;;;;;;1.00;1.00;;;;;;;;5094430;27;45493;-73
2022/09/20 06:22:35;;;;;;;;;2.00;0.67;;;;;;;;5083949;27;45320;-74
2022/09/20 06:25:03;;;;;;;;;0.00;0.00;;;;;;;;5095045;27;45530;-73
2022/09/20 06:27:35;;;;;;;;;0.00;0.00;;;;;;;;5094698;27;45232;-74
2022/09/20 06:30:04;;;;;;;;;1.33;0.00;;;;;;;;5093492;27;45552;-74
2022/09/20 06:32:30;;;;;;;;;0.00;0.00;;;;;;;;5093263;27;46221;-74
2022/09/20 06:34:55;;;;;;;;;1.00;0.00;;;;;;;;5093900;27;45456;-74
2022/09/20 06:43:13;;;;;;;;;0.00;0.00;;;;;;;;5095068;27;45782;-74
2022/09/20 06:45:38;;;;;;;;;0.00;0.00;;;;;;;;5095497;27;45434;-74
2022/09/20 06:48:04;;;;;;;;;0.67;0.33;;;;;;;;5095606;27;45352;-74
2022/09/20 06:50:30;;;;;;;;;0.00;0.00;;;;;;;;5095219;27;45333;-74
2022/09/20 06:52:56;;;;;;;;;0.00;0.00;;;;;;;;5095513;27;46054;-74
2022/09/20 06:55:27;;;;;;;;;2.00;0.00;;;;;;;;5077592;27;45332;-75
2022/09/20 06:57:53;;;;;;;;;0.00;0.00;;;;;;;;5099284;27;45548;-74
2022/09/20 07:00:18;;;;;;;;;0.67;0.67;;;;;;;;5098945;27;45397;-74
2022/09/20 07:02:43;;;;;;;;;1.67;0.00;;;;;;;;5098806;27;46426;-75
2022/09/20 07:05:16;;;;;;;;;0.67;0.67;;;;;;;;5097893;27;45372;-74
2022/09/20 07:07:42;;;;;;;;;1.00;1.00;;;;;;;;5099060;27;45333;-74
2022/09/20 07:10:08;;;;;;;;;1.00;1.00;;;;;;;;5098954;27;45495;-75
2022/09/20 07:12:34;;;;;;;;;2.00;2.00;;;;;;;;5098443;27;46153;-75
2022/09/20 07:14:59;;;;;;;;;1.00;1.00;;;;;;;;5098771;27;45292;-74
2022/09/20 07:17:24;;;;;;;;;0.00;0.00;;;;;;;;5104257;27;45354;-75
2022/09/20 07:19:50;;;;;;;;;1.33;1.00;;;;;;;;5112125;27;45298;-75
2022/09/20 07:22:15;;;;;;;;;4.00;1.00;;;;;;;;5101669;27;46179;-74
2022/09/20 07:24:41;;;;;;;;;2.00;1.00;;;;;;;;5098506;27;45359;-74
2022/09/20 07:27:06;;;;;;;;;0.00;0.00;;;;;;;;5098564;27;45400;-75
2022/09/20 07:29:34;;;;;;;;;1.00;1.00;;;;;;;;5098593;27;45495;-75
2022/09/20 07:31:59;;;;;;;;;0.00;0.00;;;;;;;;5098137;27;46246;-74
2022/09/20 07:34:26;;;;;;;;;1.00;1.00;;;;;;;;5097807;27;45250;-75
2022/09/20 07:36:51;;;;;;;;;1.67;1.00;;;;;;;;5098331;27;45354;-74
2022/09/20 07:39:16;;;;;;;;;0.67;0.67;;;;;;;;5098167;27;45446;-74
2022/09/20 07:41:44;;;;;;;;;1.67;1.00;;;;;;;;5098258;27;46453;-75
2022/09/20 07:44:23;;;;;;;;;1.00;1.00;;;;;;;;5097996;27;45330;-74
2022/09/20 07:46:56;;;;;;;;;0.00;0.00;;;;;;;;5097978;27;45271;-76
2022/09/20 07:49:22;;;;;;;;;1.00;1.00;;;;;;;;5098157;27;45416;-76
2022/09/20 07:51:48;;;;;;;;;0.67;0.67;;;;;;;;5097923;27;47211;-76
2022/09/20 07:54:14;;;;;;;;;0.67;0.67;;;;;;;;5097970;27;45427;-76
2022/09/20 07:56:39;;;;;;;;;0.33;0.33;;;;;;;;5098022;27;45484;-76
2022/09/20 07:59:05;;;;;;;;;0.00;0.00;;;;;;;;5098077;27;45335;-77
2022/09/20 08:01:30;;;;;;;;;0.00;0.00;;;;;;;;5097608;27;46371;-75
2022/09/20 08:03:56;;;;;;;;;1.00;1.00;;;;;;;;5097959;27;45325;-76
2022/09/20 08:06:21;;;;;;;;;1.00;1.00;;;;;;;;5097081;27;45303;-76
2022/09/20 08:08:47;;;;;;;;;1.33;1.33;;;;;;;;5097254;27;45256;-75
2022/09/20 08:11:14;;;;;;;;;1.00;0.67;;;;;;;;5097639;27;47134;-75
2022/09/20 08:13:41;;;;;;;;;1.00;1.00;;;;;;;;5097710;27;45280;-75
2022/09/20 08:16:07;;;;;;;;;1.00;1.00;;;;;;;;5097507;27;45449;-75
2022/09/20 08:18:33;;;;;;;;;0.00;0.00;;;;;;;;5097869;27;45520;-76
2022/09/20 08:21:05;;;;;;;;;2.33;1.33;;;;;;;;5097446;27;45322;-75
2022/09/20 08:23:30;;;;;;;;;1.33;1.00;;;;;;;;5097758;27;45370;-75
2022/09/20 08:25:56;;;;;;;;;0.33;0.33;;;;;;;;5097687;27;45419;-75
2022/09/20 08:28:21;;;;;;;;;3.33;2.00;;;;;;;;5097680;27;45690;-74
2022/09/20 08:30:46;;;;;;;;;0.00;0.00;;;;;;;;5097348;27;45543;-75
2022/09/20 08:33:11;;;;;;;;;2.00;2.00;;;;;;;;5097205;27;45741;-75
2022/09/20 08:35:37;;;;;;;;;1.33;1.00;;;;;;;;5097430;27;45369;-74
2022/09/20 08:38:02;;;;;;;;;3.00;1.00;;;;;;;;5113356;27;45311;-75
2022/09/20 08:40:28;;;;;;;;;1.33;1.33;;;;;;;;5097129;27;47455;-74
2022/09/20 08:42:54;;;;;;;;;1.33;1.33;;;;;;;;5097539;27;45394;-75
2022/09/20 08:45:21;;;;;;;;;1.00;1.00;;;;;;;;5096892;27;45426;-75
2022/09/20 08:47:52;;;;;;;;;1.00;1.00;;;;;;;;5097598;27;45377;-75
2022/09/20 08:50:18;;;;;;;;;2.00;1.00;;;;;;;;5097276;27;45442;-75
2022/09/20 08:52:45;;;;;;;;;1.00;1.00;;;;;;;;5096902;27;45269;-75
2022/09/20 08:55:15;;;;;;;;;2.00;1.33;;;;;;;;5097208;27;45275;-75
2022/09/20 08:57:41;;;;;;;;;2.33;2.33;;;;;;;;5096914;27;45553;-75
2022/09/20 09:00:12;;;;;;;;;3.00;1.00;;;;;;;;5096764;27;46068;-74
2022/09/20 09:02:38;;;;;;;;;1.00;1.00;;;;;;;;5096683;27;45269;-75
2022/09/20 09:05:12;;;;;;;;;1.00;1.00;;;;;;;;5096768;27;45633;-75
2022/09/20 09:07:38;;;;;;;;;3.00;2.00;;;;;;;;5097122;27;45395;-75
2022/09/20 09:10:04;;;;;;;;;1.00;1.00;;;;;;;;5096804;27;46084;-74
2022/09/20 09:12:32;;;;;;;;;2.33;2.33;;;;;;;;5096620;27;45398;-75
2022/09/20 09:15:18;;;;;;;;;1.00;1.00;;;;;;;;5096889;27;45402;-75
2022/09/20 09:17:43;;;;;;;;;2.00;2.00;;;;;;;;5085139;27;45618;-76
2022/09/20 09:20:16;;;;;;;;;2.00;2.00;;;;;;;;5096385;27;45439;-76
2022/09/20 09:22:44;;;;;;;;;1.00;1.00;;;;;;;;5096739;27;45345;-76
2022/09/20 09:25:15;;;;;;;;;2.33;0.67;;;;;;;;5096561;27;45567;-75
2022/09/20 09:27:50;;;;;;;;;2.00;2.00;;;;;;;;5096819;27;45378;-75
2022/09/20 09:30:19;;;;;;;;;1.67;1.67;;;;;;;;5082414;27;45363;-75
2022/09/20 09:32:45;;;;;;;;;2.00;2.00;;;;;;;;5095808;27;45247;-75
2022/09/20 09:35:27;;;;;;;;;2.00;2.00;;;;;;;;5096585;27;45409;-75
2022/09/20 09:37:56;;;;;;;;;3.00;1.00;;;;;;;;5096729;27;45387;-75
2022/09/20 09:40:22;;;;;;;;;2.33;1.67;;;;;;;;5096113;27;45518;-75
2022/09/20 09:42:52;;;;;;;;;1.00;1.00;;;;;;;;5096158;27;45347;-76
2022/09/20 09:45:26;;;;;;;;;1.00;1.00;;;;;;;;5096459;27;45517;-74
2022/09/20 09:47:52;;;;;;;;;2.00;2.00;;;;;;;;5096202;27;45475;-76
2022/09/20 09:50:22;;;;;;;;;1.67;1.67;;;;;;;;5096218;27;47157;-74
2022/09/20 09:53:01;;;;;;;;;2.00;2.00;;;;;;;;5096350;27;45358;-76
2022/09/20 09:55:32;;;;;;;;;2.00;1.33;;;;;;;;5096177;27;45416;-75
2022/09/20 09:58:02;;;;;;;;;4.00;3.00;;;;;;;;5095851;27;45357;-76
2022/09/20 10:00:30;;;;;;;;;3.00;2.67;;;;;;;;5095990;27;45513;-75
2022/09/20 10:02:59;;;;;;;;;3.00;1.33;;;;;;;;5095950;27;45458;-75
2022/09/20 10:05:31;;;;;;;;;2.00;2.00;;;;;;;;5095822;27;45526;-75
2022/09/20 10:08:18;;;;;;;;;2.00;2.00;;;;;;;;5095837;27;45281;-75
2022/09/20 10:10:58;;;;;;;;;2.67;2.00;;;;;;;;5095803;27;46424;-75
2022/09/20 10:13:23;;;;;;;;;4.67;2.00;;;;;;;;5082945;27;45384;-75
2022/09/20 10:15:49;;;;;;;;;1.75;1.75;;;;;;;;5096453;27;45555;-74
2022/09/20 10:18:23;;;;;;;;;1.00;1.00;;;;;;;;5095925;27;45472;-75
2022/09/20 10:20:54;;;;;;;;;2.00;2.00;;;;;;;;5096009;27;46531;-75
2022/09/20 10:23:31;;;;;;;;;2.00;1.00;;;;;;;;5095465;27;45480;-74
2022/09/20 10:26:14;;;;;;;;;1.00;1.00;;;;;;;;5095870;27;45432;-75
2022/09/20 10:28:56;;;;;;;;;1.00;1.00;;;;;;;;5082905;27;45461;-75
2022/09/20 10:31:24;;;;;;;;;1.67;1.67;;;;;;;;5097620;27;46089;-75
2022/09/20 10:33:52;;;;;;;;;1.00;1.00;;;;;;;;5098777;27;45432;-75
2022/09/20 10:36:17;;;;;;;;;1.00;1.00;;;;;;;;5099369;27;45398;-76
2022/09/20 10:38:42;;;;;;;;;1.00;0.67;;;;;;;;5098876;27;45699;-75
2022/09/20 10:44:03;;;;;;;;;2.00;2.00;;;;;;;;5098959;27;45442;-75
2022/09/20 10:46:31;;;;;;;;;2.75;2.00;;;;;;;;5099496;27;45407;-76
2022/09/20 10:49:02;;;;;;;;;3.67;1.00;;;;;;;;5099109;27;45560;-76
2022/09/20 10:51:46;;;;;;;;;2.00;2.00;;;;;;;;5098988;27;47219;-73
2022/09/20 10:54:30;;;;;;;;;2.00;1.00;;;;;;;;5098553;27;45470;-75
2022/09/20 10:57:10;;;;;;;;;2.00;1.67;;;;;;;;5098840;27;45417;-75
2022/09/20 11:00:01;;;;;;;;;1.33;1.33;;;;;;;;5099134;27;45491;-75
2022/09/20 11:02:29;;;;;;;;;3.00;1.00;;;;;;;;5035100;28;46188;-76
2022/09/20 11:05:13;;;;;;;;;2.00;2.00;;;;;;;;5035637;28;45460;-75
2022/09/20 11:07:47;;;;;;;;;2.00;2.00;;;;;;;;5035452;28;45452;-75
2022/09/20 11:10:16;;;;;;;;;1.00;1.00;;;;;;;;5035563;28;45341;-74
2022/09/20 11:12:44;;;;;;;;;2.00;2.00;;;;;;;;5034414;28;46320;-76
2022/09/20 11:15:22;;;;;;;;;1.00;1.00;;;;;;;;5035389;28;45436;-75
2022/09/20 11:18:02;;;;;;;;;1.67;1.00;;;;;;;;5035219;28;45476;-76
2022/09/20 11:20:48;;;;;;;;;1.00;1.00;;;;;;;;5035443;28;45359;-76
2022/09/20 11:23:18;;;;;;;;;2.00;1.00;;;;;;;;5027914;28;46157;-76
2022/09/20 11:25:58;;;;;;;;;2.67;2.67;;;;;;;;5034929;28;45279;-75
2022/09/20 11:28:36;;;;;;;;;1.33;1.00;;;;;;;;5035053;28;45478;-75
2022/09/20 11:31:10;;;;;;;;;2.00;2.00;;;;;;;;5035399;28;45447;-75
2022/09/20 11:33:51;;;;;;;;;3.00;1.33;;;;;;;;5034843;28;46276;-75
2022/09/20 11:36:26;;;;;;;;;1.00;1.00;;;;;;;;5034995;28;45479;-75
2022/09/20 11:39:05;;;;;;;;;2.00;2.00;;;;;;;;5038490;27;45350;-75
2022/09/20 11:41:31;;;;;;;;;2.00;1.67;;;;;;;;5098220;27;45451;-76
2022/09/20 11:44:00;;;;;;;;;3.00;1.00;;;;;;;;5097982;27;46089;-76
2022/09/20 11:46:32;;;;;;;;;3.00;3.00;;;;;;;;5098356;27;45186;-75
2022/09/20 11:49:02;;;;;;;;;2.00;1.33;;;;;;;;5098165;27;45530;-76
2022/09/20 11:51:30;;;;;;;;;4.67;2.00;;;;;;;;5098333;27;45365;-76
2022/09/20 11:54:11;;;;;;;;;2.33;2.00;;;;;;;;5097467;27;46180;-76
2022/09/20 11:56:37;;;;;;;;;2.00;1.00;;;;;;;;5098156;27;45313;-76
2022/09/20 11:59:04;;;;;;;;;2.33;1.67;;;;;;;;5097937;27;45374;-75
2022/09/20 12:01:31;;;;;;;;;1.33;1.33;;;;;;;;5097952;27;45295;-75
2022/09/20 12:04:24;;;;;;;;;2.00;2.00;;;;;;;;5097913;27;46166;-75
2022/09/20 12:07:04;;;;;;;;;2.00;2.00;;;;;;;;5080264;27;45579;-76
2022/09/20 12:09:38;;;;;;;;;1.00;1.00;;;;;;;;5097305;27;45258;-76
2022/09/20 12:12:14;;;;;;;;;1.00;1.00;;;;;;;;5097932;27;45437;-76
2022/09/20 12:14:39;;;;;;;;;1.00;1.00;;;;;;;;5097550;27;45345;-76
2022/09/20 12:17:04;;;;;;;;;1.00;1.00;;;;;;;;5097649;27;45231;-75
2022/09/20 12:19:31;;;;;;;;;1.00;1.00;;;;;;;;5097395;27;45426;-75
2022/09/20 12:21:59;;;;;;;;;1.00;1.00;;;;;;;;5097851;27;45409;-75
2022/09/20 12:24:25;;;;;;;;;2.67;1.00;;;;;;;;5097175;27;46439;-76
2022/09/20 12:26:54;;;;;;;;;1.00;1.00;;;;;;;;5097622;27;45429;-75
2022/09/20 12:29:22;;;;;;;;;1.00;1.00;;;;;;;;5097442;27;45357;-75
2022/09/20 12:31:48;;;;;;;;;2.00;2.00;;;;;;;;5097429;27;45349;-75
2022/09/20 12:34:14;;;;;;;;;1.33;1.33;;;;;;;;5097725;27;46171;-75
2022/09/20 12:36:54;;;;;;;;;1.00;1.00;;;;;;;;5097240;27;45536;-74
2022/09/20 12:39:23;;;;;;;;;3.00;2.00;;;;;;;;5085065;27;45388;-76
2022/09/20 12:41:49;;;;;;;;;1.67;1.67;;;;;;;;5097426;27;45265;-76
2022/09/20 12:44:20;;;;;;;;;2.00;1.00;;;;;;;;5097180;27;46004;-75
2022/09/20 12:47:02;;;;;;;;;3.00;2.00;;;;;;;;5097287;27;46549;-76
2022/09/20 12:55:10;;;;;;;;;1.00;1.00;;;;;;;;5096633;27;45650;-75
2022/09/20 12:57:36;;;;;;;;;2.00;1.67;;;;;;;;5096943;27;45343;-75
2022/09/20 13:00:04;;;;;;;;;2.00;2.00;;;;;;;;5097219;27;45268;-76
2022/09/20 13:02:48;;;;;;;;;1.67;1.00;;;;;;;;5096937;27;45373;-76
2022/09/20 13:05:35;;;;;;;;;2.00;2.00;;;;;;;;5096870;27;45302;-75
2022/09/20 13:08:19;;;;;;;;;1.00;1.00;;;;;;;;5096349;27;45306;-75
2022/09/20 13:10:56;;;;;;;;;4.00;2.00;;;;;;;;5096872;27;46811;-75
2022/09/20 13:13:30;;;;;;;;;0.67;0.67;;;;;;;;5083590;27;45728;-75
2022/09/20 13:15:56;;;;;;;;;1.00;1.00;;;;;;;;5096686;27;47272;-75
2022/09/20 13:18:24;;;;;;;;;2.00;2.00;;;;;;;;5096957;27;45252;-75
2022/09/20 13:20:50;;;;;;;;;2.00;2.00;;;;;;;;5096310;27;45298;-75
2022/09/20 13:23:21;;;;;;;;;1.00;1.00;;;;;;;;5096781;27;45185;-75
2022/09/20 13:25:47;;;;;;;;;3.00;1.67;;;;;;;;5096557;27;46439;-76
2022/09/20 13:28:33;;;;;;;;;1.67;1.67;;;;;;;;5096363;27;45388;-76
2022/09/20 13:31:15;;;;;;;;;3.00;0.67;;;;;;;;5096812;27;45425;-75
2022/09/20 13:33:40;;;;;;;;;1.00;1.00;;;;;;;;5096466;27;45538;-75
2022/09/20 13:36:06;;;;;;;;;1.00;1.00;;;;;;;;5095947;27;47039;-76
2022/09/20 13:38:31;;;;;;;;;1.00;1.00;;;;;;;;5096277;27;45438;-75
2022/09/20 13:41:02;;;;;;;;;1.00;1.00;;;;;;;;5096943;27;45355;-76
2022/09/20 13:43:38;;;;;;;;;1.67;1.00;;;;;;;;5096412;27;45302;-75
2022/09/20 13:46:10;;;;;;;;;0.00;0.00;;;;;;;;5096624;27;45708;-75
2022/09/20 13:48:35;;;;;;;;;2.00;2.00;;;;;;;;5096137;27;45532;-75
2022/09/20 13:51:01;;;;;;;;;3.00;1.00;;;;;;;;5096084;27;45358;-75
2022/09/20 13:53:27;;;;;;;;;1.67;1.67;;;;;;;;5095920;27;45664;-75
2022/09/20 13:55:54;;;;;;;;;2.00;2.00;;;;;;;;5095222;27;46098;-76
2022/09/20 13:58:27;;;;;;;;;0.33;0.33;;;;;;;;5096273;27;45353;-75
2022/09/20 14:00:53;;;;;;;;;2.33;2.33;;;;;;;;5096129;27;45437;-75
2022/09/20 14:03:19;;;;;;;;;1.33;1.33;;;;;;;;5096214;27;45403;-76
2022/09/20 14:05:46;;;;;;;;;1.67;1.67;;;;;;;;5098231;27;46420;-75
2022/09/20 14:08:14;;;;;;;;;1.67;1.67;;;;;;;;5099758;27;45532;-76
2022/09/20 14:10:41;;;;;;;;;1.00;1.00;;;;;;;;5099793;27;45441;-75
2022/09/20 14:13:10;;;;;;;;;2.00;2.00;;;;;;;;5099468;27;45325;-76
2022/09/20 14:15:36;;;;;;;;;1.33;1.33;;;;;;;;5099817;27;46587;-75
2022/09/20 14:18:03;;;;;;;;;2.00;1.00;;;;;;;;5099667;27;45326;-75
2022/09/20 14:20:28;;;;;;;;;3.00;1.00;;;;;;;;5099350;27;45314;-75
2022/09/20 14:22:54;;;;;;;;;2.00;1.33;;;;;;;;5099515;27;45353;-75
2022/09/20 14:25:21;;;;;;;;;2.00;2.00;;;;;;;;5099621;27;45662;-75
2022/09/20 14:27:46;;;;;;;;;1.67;1.67;;;;;;;;5099393;27;45209;-75
2022/09/20 14:30:28;;;;;;;;;3.00;2.00;;;;;;;;5099757;27;45247;-75
2022/09/20 14:32:54;;;;;;;;;2.00;2.00;;;;;;;;5099148;27;45508;-75
2022/09/20 14:35:21;;;;;;;;;3.00;1.00;;;;;;;;5099056;27;45256;-75
2022/09/20 14:37:50;;;;;;;;;2.00;1.00;;;;;;;;5098827;27;45366;-75
2022/09/20 14:40:19;;;;;;;;;1.33;1.33;;;;;;;;5099487;27;45343;-75
2022/09/20 14:42:45;;;;;;;;;1.33;1.33;;;;;;;;5099431;27;45488;-76
2022/09/20 14:45:22;;;;;;;;;2.00;1.33;;;;;;;;5099214;27;46168;-75
2022/09/20 14:47:55;;;;;;;;;1.00;1.00;;;;;;;;5085188;27;45298;-75
2022/09/20 14:50:25;;;;;;;;;1.33;1.33;;;;;;;;5099376;27;45385;-75
2022/09/20 14:52:59;;;;;;;;;1.00;1.00;;;;;;;;5085343;27;45292;-75
2022/09/20 14:55:27;;;;;;;;;1.00;1.00;;;;;;;;5098871;27;46244;-75
2022/09/20 14:57:52;;;;;;;;;1.00;1.00;;;;;;;;5098768;27;45620;-75
2022/09/20 15:00:18;;;;;;;;;1.00;1.00;;;;;;;;5099212;27;45425;-76
2022/09/20 15:02:44;;;;;;;;;2.33;2.33;;;;;;;;5098589;27;45432;-76
2022/09/20 15:05:36;;;;;;;;;1.67;1.67;;;;;;;;5098462;27;46295;-75
2022/09/20 15:08:01;;;;;;;;;1.67;1.67;;;;;;;;5095157;27;45556;-75
2022/09/20 15:10:26;;;;;;;;;1.00;1.00;;;;;;;;5098691;27;45330;-75
2022/09/20 15:12:51;;;;;;;;;1.67;1.67;;;;;;;;5098857;27;45350;-76
2022/09/20 15:15:17;;;;;;;;;1.33;1.33;;;;;;;;5098843;27;46223;-76
2022/09/20 15:17:44;;;;;;;;;1.00;1.00;;;;;;;;5097593;27;45466;-75
2022/09/20 15:20:17;;;;;;;;;1.00;1.00;;;;;;;;5098906;27;45323;-75
2022/09/20 15:22:42;;;;;;;;;2.00;2.00;;;;;;;;5098481;27;45508;-75
2022/09/20 15:25:12;;;;;;;;;2.00;1.00;;;;;;;;5098436;27;46074;-76